createdAt,value
2023-06-04T00:00:48.209Z,86.36
2023-06-04T00:01:48.217Z,86.05
2023-06-04T00:02:48.325Z,86.05
2023-06-04T00:03:48.258Z,86.26
2023-06-04T00:04:48.224Z,86.36
2023-06-04T00:05:48.119Z,86.26
2023-06-04T00:06:48.132Z,86.57
2023-06-04T00:07:48.159Z,86.77
2023-06-04T00:08:48.109Z,86.88
2023-06-04T00:09:48.215Z,86.98
2023-06-04T00:10:48.117Z,86.88
2023-06-04T00:11:48.137Z,87.08
2023-06-04T00:12:48.051Z,87.22
2023-06-04T00:13:48.037Z,87.02
2023-06-04T00:14:48.963Z,87.32
2023-06-04T00:15:48.204Z,87.32
2023-06-04T00:16:48.081Z,86.51
2023-06-04T00:17:48.059Z,86.61
2023-06-04T00:18:47.969Z,86.51
2023-06-04T00:19:47.962Z,86.61
2023-06-04T00:20:47.976Z,86.20
2023-06-04T00:21:47.974Z,86.10
2023-06-04T00:22:47.942Z,86.14
2023-06-04T00:23:47.917Z,86.55
2023-06-04T00:24:47.958Z,86.85
2023-06-04T00:25:47.880Z,87.16
2023-06-04T00:26:47.893Z,87.67
2023-06-04T00:27:48.040Z,87.88
2023-06-04T00:28:47.848Z,88.08
2023-06-04T00:29:47.827Z,88.08
2023-06-04T00:30:47.847Z,88.29
2023-06-04T00:31:47.819Z,88.49
2023-06-04T00:32:47.920Z,88.70
2023-06-04T00:33:47.787Z,88.49
2023-06-04T00:34:47.759Z,88.59
2023-06-04T00:35:47.746Z,88.59
2023-06-04T00:36:47.731Z,88.18
2023-06-04T00:37:47.723Z,88.18
2023-06-04T00:38:47.758Z,88.29
2023-06-04T00:39:47.719Z,87.98
2023-06-04T00:40:47.710Z,87.47
2023-06-04T00:41:47.641Z,87.77
2023-06-04T00:42:47.652Z,88.43
2023-06-04T00:43:47.643Z,89.15
2023-06-04T00:44:47.654Z,89.45
2023-06-04T00:45:47.694Z,89.56
2023-06-04T00:46:47.594Z,89.36
2023-06-04T00:47:47.646Z,89.56
2023-06-04T00:48:47.576Z,89.87
2023-06-04T00:49:47.568Z,90.17
2023-06-04T00:50:47.576Z,90.28
2023-06-04T00:51:47.633Z,90.28
2023-06-04T00:52:47.561Z,90.52
2023-06-04T00:53:47.530Z,90.52
2023-06-04T00:54:47.489Z,90.32
2023-06-04T00:55:47.483Z,90.32
2023-06-04T00:56:47.479Z,90.42
2023-06-04T00:57:47.505Z,90.62
2023-06-04T00:58:47.521Z,90.62
2023-06-04T00:59:47.414Z,90.73
2023-06-04T01:00:47.478Z,90.42
2023-06-04T01:01:47.459Z,90.52
2023-06-04T01:02:47.517Z,90.73
2023-06-04T01:03:47.502Z,90.62
2023-06-04T01:04:47.390Z,90.73
2023-06-04T01:05:47.327Z,90.73
2023-06-04T01:06:47.351Z,90.73
2023-06-04T01:07:47.324Z,90.52
2023-06-04T01:08:47.308Z,90.46
2023-06-04T01:09:47.331Z,90.36
2023-06-04T01:10:47.305Z,90.05
2023-06-04T01:11:47.239Z,89.33
2023-06-04T01:12:47.285Z,89.03
2023-06-04T01:13:48.405Z,88.92
2023-06-04T01:14:47.229Z,88.62
2023-06-04T01:15:47.265Z,88.76
2023-06-04T01:16:47.264Z,89.58
2023-06-04T01:17:47.920Z,90.81
2023-06-04T01:18:47.175Z,91.84
2023-06-04T01:19:47.170Z,91.94
2023-06-04T01:20:47.150Z,92.55
2023-06-04T01:21:47.209Z,92.76
2023-06-04T01:22:47.148Z,92.97
2023-06-04T01:23:47.164Z,93.42
2023-06-04T01:24:47.130Z,92.91
2023-06-04T01:25:47.060Z,92.91
2023-06-04T01:26:47.063Z,92.91
2023-06-04T01:27:47.082Z,93.16
2023-06-04T01:28:47.141Z,92.64
2023-06-04T01:29:47.040Z,92.85
2023-06-04T01:30:47.333Z,93.40
2023-06-04T01:31:47.019Z,94.23
2023-06-04T01:32:47.079Z,94.84
2023-06-04T01:33:46.979Z,95.15
2023-06-04T01:34:46.968Z,95.46
2023-06-04T01:35:46.955Z,95.92
2023-06-04T01:36:46.941Z,96.02
2023-06-04T01:37:46.927Z,95.81
2023-06-04T01:38:46.940Z,96.02
2023-06-04T01:39:46.925Z,96.33
2023-06-04T01:40:46.948Z,96.73
2023-06-04T01:41:47.808Z,96.94
2023-06-04T01:42:46.870Z,97.05
2023-06-04T01:43:46.854Z,97.25
2023-06-04T01:44:46.886Z,97.36
2023-06-04T01:45:46.852Z,97.45
2023-06-04T01:46:47.770Z,97.36
2023-06-04T01:47:46.829Z,97.45
2023-06-04T01:48:46.777Z,97.45
2023-06-04T01:49:46.778Z,97.61
2023-06-04T01:50:46.768Z,97.81
2023-06-04T01:51:46.743Z,98.12
2023-06-04T01:52:46.751Z,98.33
2023-06-04T01:53:46.700Z,98.53
2023-06-04T01:54:46.701Z,98.79
2023-06-04T01:55:46.693Z,99.10
2023-06-04T01:56:46.669Z,99.10
2023-06-04T01:57:46.713Z,99.10
2023-06-04T01:58:46.671Z,98.94
2023-06-04T01:59:47.552Z,98.84
2023-06-04T02:00:46.650Z,98.94
2023-06-04T02:01:46.611Z,98.84
2023-06-04T02:02:46.709Z,98.84
2023-06-04T02:03:46.658Z,98.79
2023-06-04T02:04:46.683Z,99.09
2023-06-04T02:05:46.522Z,99.19
2023-06-04T02:06:46.532Z,99.30
2023-06-04T02:07:46.517Z,99.30
2023-06-04T02:08:46.503Z,99.40
2023-06-04T02:09:46.531Z,99.60
2023-06-04T02:10:46.503Z,99.71
2023-06-04T02:11:46.447Z,99.91
2023-06-04T02:12:46.474Z,99.91
2023-06-04T02:13:46.414Z,99.81
2023-06-04T02:14:46.438Z,99.81
2023-06-04T02:15:46.433Z,99.40
2023-06-04T02:16:47.470Z,99.40
2023-06-04T02:17:46.405Z,99.71
2023-06-04T02:18:46.404Z,99.99
2023-06-04T02:19:46.344Z,99.99
2023-06-04T02:20:46.365Z,99.99
2023-06-04T02:21:46.442Z,99.99
2023-06-04T02:22:46.348Z,99.99
2023-06-04T02:23:46.332Z,99.99
2023-06-04T02:24:46.322Z,99.99
2023-06-04T02:25:46.260Z,99.99
2023-06-04T02:26:46.265Z,99.99
2023-06-04T02:27:46.288Z,99.99
2023-06-04T02:28:46.242Z,99.86
2023-06-04T02:29:46.230Z,99.96
2023-06-04T02:30:46.241Z,99.99
2023-06-04T02:31:46.216Z,99.99
2023-06-04T02:32:50.195Z,99.99
2023-06-04T02:33:47.196Z,99.99
2023-06-04T02:34:46.184Z,99.99
2023-06-04T02:35:46.166Z,99.99
2023-06-04T02:36:46.141Z,99.99
2023-06-04T02:37:46.138Z,99.99
2023-06-04T02:38:46.135Z,99.99
2023-06-04T02:39:46.277Z,99.99
2023-06-04T02:40:46.173Z,99.99
2023-06-04T02:41:46.043Z,99.99
2023-06-04T02:42:46.064Z,99.99
2023-06-04T02:43:46.063Z,99.99
2023-06-04T02:44:46.040Z,99.99
2023-06-04T02:45:46.072Z,99.99
2023-06-04T02:46:46.043Z,99.99
2023-06-04T02:47:46.022Z,99.99
2023-06-04T02:48:46.006Z,99.99
2023-06-04T02:49:45.939Z,99.99
2023-06-04T02:50:45.971Z,99.99
2023-06-04T02:51:46.940Z,99.99
2023-06-04T02:52:45.951Z,99.99
2023-06-04T02:53:45.889Z,99.99
2023-06-04T02:54:45.899Z,99.99
2023-06-04T02:55:45.884Z,99.99
2023-06-04T02:56:45.879Z,99.99
2023-06-04T02:57:45.938Z,99.99
2023-06-04T02:58:45.883Z,99.99
2023-06-04T02:59:45.816Z,99.99
2023-06-04T03:00:45.846Z,99.99
2023-06-04T03:01:45.801Z,99.99
2023-06-04T03:02:45.956Z,99.99
2023-06-04T03:03:45.969Z,99.99
2023-06-04T03:04:45.766Z,99.99
2023-06-04T03:05:45.764Z,99.99
2023-06-04T03:06:45.767Z,99.99
2023-06-04T03:07:45.707Z,99.99
2023-06-04T03:08:45.756Z,99.99
2023-06-04T03:09:45.747Z,99.99
2023-06-04T03:10:45.795Z,99.99
2023-06-04T03:11:45.651Z,99.99
2023-06-04T03:12:45.704Z,99.99
2023-06-04T03:13:45.631Z,99.99
2023-06-04T03:14:45.654Z,99.99
2023-06-04T03:15:45.669Z,99.99
2023-06-04T03:16:45.611Z,99.99
2023-06-04T03:17:45.659Z,99.99
2023-06-04T03:18:45.608Z,99.99
2023-06-04T03:19:45.547Z,99.99
2023-06-04T03:20:45.597Z,99.99
2023-06-04T03:21:45.557Z,99.99
2023-06-04T03:22:45.534Z,99.99
2023-06-04T03:23:45.561Z,99.99
2023-06-04T03:24:45.541Z,99.99
2023-06-04T03:25:45.487Z,99.99
2023-06-04T03:26:45.483Z,99.99
2023-06-04T03:27:45.512Z,99.99
2023-06-04T03:28:45.459Z,99.99
2023-06-04T03:29:45.445Z,99.99
2023-06-04T03:30:45.479Z,99.99
2023-06-04T03:31:45.418Z,99.85
2023-06-04T03:32:46.142Z,99.43
2023-06-04T03:33:45.398Z,99.13
2023-06-04T03:34:45.375Z,98.92
2023-06-04T03:35:45.370Z,98.71
2023-06-04T03:36:46.046Z,98.61
2023-06-04T03:37:45.335Z,98.50
2023-06-04T03:38:45.352Z,98.41
2023-06-04T03:39:45.334Z,98.20
2023-06-04T03:40:45.279Z,98.10
2023-06-04T03:41:45.307Z,98.30
2023-06-04T03:42:45.271Z,98.71
2023-06-04T03:43:45.256Z,99.33
2023-06-04T03:44:45.259Z,99.95
2023-06-04T03:45:45.473Z,99.99
2023-06-04T03:46:45.275Z,99.99
2023-06-04T03:47:45.272Z,99.99
2023-06-04T03:48:45.168Z,99.99
2023-06-04T03:49:45.213Z,99.99
2023-06-04T03:50:45.166Z,99.99
2023-06-04T03:51:45.175Z,99.99
2023-06-04T03:52:45.142Z,99.99
2023-06-04T03:53:45.127Z,99.99
2023-06-04T03:54:45.131Z,99.99
2023-06-04T03:55:45.134Z,99.99
2023-06-04T03:56:45.090Z,99.99
2023-06-04T03:57:45.121Z,99.99
2023-06-04T03:58:46.004Z,99.99
2023-06-04T03:59:45.092Z,99.99
2023-06-04T04:00:45.012Z,99.99
2023-06-04T04:01:45.089Z,99.99
2023-06-04T04:02:45.053Z,99.99
2023-06-04T04:03:45.262Z,99.99
2023-06-04T04:04:45.047Z,99.99
2023-06-04T04:05:44.978Z,99.99
2023-06-04T04:06:44.940Z,99.99
2023-06-04T04:07:44.980Z,99.99
2023-06-04T04:08:45.868Z,99.99
2023-06-04T04:09:44.985Z,99.99
2023-06-04T04:10:44.918Z,99.99
2023-06-04T04:11:44.890Z,99.99
2023-06-04T04:12:44.945Z,99.99
2023-06-04T04:13:44.897Z,99.99
2023-06-04T04:14:44.866Z,99.96
2023-06-04T04:15:44.890Z,99.86
2023-06-04T04:16:44.881Z,99.76
2023-06-04T04:17:44.857Z,99.60
2023-06-04T04:18:44.775Z,99.51
2023-06-04T04:19:44.815Z,99.51
2023-06-04T04:20:44.753Z,99.51
2023-06-04T04:21:44.814Z,99.51
2023-06-04T04:22:44.753Z,99.30
2023-06-04T04:23:44.784Z,99.19
2023-06-04T04:24:44.740Z,98.84
2023-06-04T04:25:44.713Z,98.74
2023-06-04T04:26:45.636Z,98.63
2023-06-04T04:27:44.748Z,98.43
2023-06-04T04:28:44.673Z,98.33
2023-06-04T04:29:44.658Z,98.22
2023-06-04T04:30:44.630Z,98.07
2023-06-04T04:31:44.736Z,98.28
2023-06-04T04:32:44.621Z,98.49
2023-06-04T04:33:44.662Z,98.28
2023-06-04T04:34:44.597Z,98.24
2023-06-04T04:35:44.599Z,98.13
2023-06-04T04:36:44.571Z,98.13
2023-06-04T04:37:44.552Z,97.88
2023-06-04T04:38:44.516Z,97.67
2023-06-04T04:39:44.675Z,97.37
2023-06-04T04:40:44.491Z,97.32
2023-06-04T04:41:44.632Z,97.22
2023-06-04T04:42:44.486Z,97.12
2023-06-04T04:43:44.475Z,97.02
2023-06-04T04:44:44.462Z,96.77
2023-06-04T04:45:44.677Z,96.56
2023-06-04T04:46:44.497Z,96.25
2023-06-04T04:47:44.505Z,95.90
2023-06-04T04:48:44.386Z,96.10
2023-06-04T04:49:44.433Z,96.31
2023-06-04T04:50:44.384Z,96.41
2023-06-04T04:51:44.396Z,96.16
2023-06-04T04:52:44.354Z,95.86
2023-06-04T04:53:44.345Z,95.44
2023-06-04T04:54:44.312Z,95.03
2023-06-04T04:55:44.339Z,94.62
2023-06-04T04:56:45.241Z,94.52
2023-06-04T04:57:44.441Z,94.17
2023-06-04T04:58:44.281Z,93.55
2023-06-04T04:59:45.212Z,93.41
2023-06-04T05:00:45.175Z,93.51
2023-06-04T05:01:44.301Z,93.41
2023-06-04T05:02:44.260Z,92.96
2023-06-04T05:03:44.273Z,92.65
2023-06-04T05:04:44.195Z,92.65
2023-06-04T05:05:44.175Z,92.30
2023-06-04T05:06:44.138Z,91.69
2023-06-04T05:07:44.856Z,90.97
2023-06-04T05:08:44.115Z,90.82
2023-06-04T05:09:44.175Z,90.52
2023-06-04T05:10:44.109Z,90.62
2023-06-04T05:11:44.092Z,90.88
2023-06-04T05:12:44.081Z,90.78
2023-06-04T05:13:44.068Z,90.47
2023-06-04T05:14:44.025Z,90.02
2023-06-04T05:15:44.094Z,89.61
2023-06-04T05:16:44.296Z,90.02
2023-06-04T05:17:44.734Z,89.26
2023-06-04T05:18:43.981Z,89.17
2023-06-04T05:19:44.018Z,88.55
2023-06-04T05:20:43.958Z,87.02
2023-06-04T05:21:44.057Z,86.91
2023-06-04T05:22:43.950Z,85.38
2023-06-04T05:23:43.978Z,85.55
2023-06-04T05:24:44.635Z,85.04
2023-06-04T05:25:43.917Z,84.94
2023-06-04T05:26:43.884Z,85.41
2023-06-04T05:27:44.025Z,84.69
2023-06-04T05:28:44.841Z,84.28
2023-06-04T05:29:43.881Z,84.55
2023-06-04T05:30:43.843Z,84.04
2023-06-04T05:31:44.571Z,83.53
2023-06-04T05:32:43.856Z,82.57
2023-06-04T05:33:43.920Z,83.09
2023-06-04T05:34:44.539Z,84.00
2023-06-04T05:35:43.771Z,82.23
2023-06-04T05:36:43.764Z,81.72
2023-06-04T05:37:43.770Z,80.77
2023-06-04T05:38:43.718Z,81.17
2023-06-04T05:39:43.883Z,79.34
2023-06-04T05:40:43.692Z,79.34
2023-06-04T05:41:43.722Z,79.30
2023-06-04T05:42:43.681Z,78.69
2023-06-04T05:43:43.667Z,78.80
2023-06-04T05:44:43.664Z,78.08
2023-06-04T05:45:43.799Z,78.76
2023-06-04T05:46:43.601Z,79.06
2023-06-04T05:47:43.661Z,77.20
2023-06-04T05:48:43.596Z,76.89
2023-06-04T05:49:43.617Z,75.77
2023-06-04T05:50:43.576Z,75.33
2023-06-04T05:51:43.591Z,75.02
2023-06-04T05:52:43.552Z,74.52
2023-06-04T05:53:43.572Z,74.21
2023-06-04T05:54:44.207Z,73.77
2023-06-04T05:55:43.541Z,73.97
2023-06-04T05:56:43.479Z,73.97
2023-06-04T05:57:43.586Z,73.22
2023-06-04T05:58:43.492Z,73.02
2023-06-04T05:59:43.497Z,73.74
2023-06-04T06:00:43.440Z,73.09
2023-06-04T06:01:43.430Z,73.50
2023-06-04T06:02:43.472Z,72.28
2023-06-04T06:03:43.582Z,72.34
2023-06-04T06:04:43.528Z,72.61
2023-06-04T06:05:43.387Z,72.01
2023-06-04T06:06:43.332Z,70.89
2023-06-04T06:07:43.403Z,70.69
2023-06-04T06:08:43.313Z,69.68
2023-06-04T06:09:43.365Z,71.26
2023-06-04T06:10:43.296Z,70.65
2023-06-04T06:11:43.292Z,70.42
2023-06-04T06:12:43.290Z,71.23
2023-06-04T06:13:43.267Z,69.61
2023-06-04T06:14:43.234Z,68.97
2023-06-04T06:15:43.338Z,68.77
2023-06-04T06:16:43.206Z,69.48
2023-06-04T06:17:43.277Z,70.36
2023-06-04T06:18:43.213Z,70.05
2023-06-04T06:19:43.194Z,67.11
2023-06-04T06:20:43.157Z,67.18
2023-06-04T06:21:43.409Z,66.58
2023-06-04T06:22:43.150Z,66.67
2023-06-04T06:23:43.161Z,65.97
2023-06-04T06:24:43.124Z,66.07
2023-06-04T06:25:43.106Z,66.17
2023-06-04T06:26:43.075Z,65.87
2023-06-04T06:27:43.151Z,66.47
2023-06-04T06:28:43.047Z,67.76
2023-06-04T06:29:43.089Z,66.64
2023-06-04T06:30:43.046Z,66.64
2023-06-04T06:31:43.102Z,65.84
2023-06-04T06:32:43.124Z,66.24
2023-06-04T06:33:43.164Z,66.01
2023-06-04T06:34:42.965Z,65.40
2023-06-04T06:35:43.002Z,63.76
2023-06-04T06:36:42.959Z,64.56
2023-06-04T06:37:42.997Z,64.94
2023-06-04T06:38:42.907Z,61.77
2023-06-04T06:39:42.988Z,60.66
2023-06-04T06:40:42.898Z,62.88
2023-06-04T06:41:42.930Z,61.85
2023-06-04T06:42:42.882Z,62.22
2023-06-04T06:43:42.881Z,62.83
2023-06-04T06:44:42.872Z,62.09
2023-06-04T06:45:42.879Z,61.29
2023-06-04T06:46:42.821Z,60.85
2023-06-04T06:47:42.910Z,58.44
2023-06-04T06:48:42.781Z,59.44
2023-06-04T06:49:42.837Z,59.84
2023-06-04T06:50:42.780Z,59.55
2023-06-04T06:51:42.871Z,59.01
2023-06-04T06:52:42.752Z,57.20
2023-06-04T06:53:42.735Z,57.12
2023-06-04T06:54:42.700Z,58.34
2023-06-04T06:55:42.737Z,59.24
2023-06-04T06:56:42.671Z,57.83
2023-06-04T06:57:42.758Z,57.03
2023-06-04T06:58:42.677Z,56.70
2023-06-04T06:59:42.662Z,56.82
2023-06-04T07:00:42.661Z,57.05
2023-06-04T07:01:42.640Z,57.03
2023-06-04T07:02:42.704Z,56.12
2023-06-04T07:03:42.669Z,56.09
2023-06-04T07:04:42.574Z,55.99
2023-06-04T07:05:42.609Z,56.16
2023-06-04T07:06:42.563Z,54.63
2023-06-04T07:07:42.550Z,55.11
2023-06-04T07:08:42.516Z,55.94
2023-06-04T07:09:42.586Z,56.67
2023-06-04T07:10:42.510Z,57.10
2023-06-04T07:11:42.495Z,56.90
2023-06-04T07:12:43.817Z,55.56
2023-06-04T07:13:42.476Z,54.55
2023-06-04T07:14:42.455Z,54.25
2023-06-04T07:15:42.504Z,55.43
2023-06-04T07:16:42.446Z,55.23
2023-06-04T07:17:42.513Z,54.83
2023-06-04T07:18:42.400Z,55.33
2023-06-04T07:19:42.394Z,54.91
2023-06-04T07:20:42.429Z,54.68
2023-06-04T07:21:42.411Z,52.55
2023-06-04T07:22:42.351Z,51.81
2023-06-04T07:23:42.398Z,51.01
2023-06-04T07:24:42.321Z,50.38
2023-06-04T07:25:42.316Z,50.09
2023-06-04T07:26:42.268Z,50.66
2023-06-04T07:27:42.346Z,49.56
2023-06-04T07:28:42.242Z,50.04
2023-06-04T07:29:42.282Z,49.43
2023-06-04T07:30:42.235Z,51.34
2023-06-04T07:31:42.270Z,50.51
2023-06-04T07:32:42.256Z,49.01
2023-06-04T07:33:42.224Z,48.41
2023-06-04T07:34:42.164Z,47.61
2023-06-04T07:35:42.205Z,47.71
2023-06-04T07:36:42.131Z,47.71
2023-06-04T07:37:42.166Z,48.99
2023-06-04T07:38:42.152Z,47.38
2023-06-04T07:39:42.148Z,48.21
2023-06-04T07:40:42.081Z,49.01
2023-06-04T07:41:42.129Z,48.58
2023-06-04T07:42:42.078Z,46.50
2023-06-04T07:43:42.070Z,47.28
2023-06-04T07:44:42.052Z,46.28
2023-06-04T07:45:42.256Z,46.66
2023-06-04T07:46:42.128Z,44.84
2023-06-04T07:47:42.062Z,44.64
2023-06-04T07:48:41.972Z,46.12
2023-06-04T07:49:54.089Z,44.49
2023-06-04T07:50:43.086Z,44.62
2023-06-04T07:51:41.960Z,45.01
2023-06-04T07:52:41.986Z,44.43
2023-06-04T07:53:41.935Z,44.62
2023-06-04T07:54:41.894Z,45.62
2023-06-04T07:55:41.936Z,45.09
2023-06-04T07:56:41.953Z,43.57
2023-06-04T07:57:41.853Z,42.65
2023-06-04T07:58:41.861Z,42.38
2023-06-04T07:59:41.865Z,43.49
2023-06-04T08:00:41.837Z,44.49
2023-06-04T08:01:41.832Z,42.87
2023-06-04T08:02:41.941Z,42.05
2023-06-04T08:03:42.014Z,41.85
2023-06-04T08:04:41.841Z,41.25
2023-06-04T08:05:41.758Z,42.65
2023-06-04T08:06:41.761Z,42.63
2023-06-04T08:07:41.787Z,43.13
2023-06-04T08:08:41.770Z,44.13
2023-06-04T08:09:41.785Z,43.61
2023-06-04T08:10:41.727Z,44.38
2023-06-04T08:11:41.664Z,44.05
2023-06-04T08:12:41.681Z,44.92
2023-06-04T08:13:41.665Z,42.41
2023-06-04T08:14:41.726Z,42.29
2023-06-04T08:15:41.613Z,41.08
2023-06-04T08:16:41.909Z,38.29
2023-06-04T08:17:41.659Z,38.49
2023-06-04T08:18:41.597Z,39.59
2023-06-04T08:19:41.583Z,39.18
2023-06-04T08:20:41.609Z,39.18
2023-06-04T08:21:41.559Z,37.90
2023-06-04T08:22:41.569Z,39.37
2023-06-04T08:23:41.565Z,38.37
2023-06-04T08:24:41.543Z,40.22
2023-06-04T08:25:41.508Z,39.64
2023-06-04T08:26:41.607Z,42.23
2023-06-04T08:27:41.478Z,40.04
2023-06-04T08:28:41.499Z,39.94
2023-06-04T08:29:41.616Z,40.32
2023-06-04T08:30:41.433Z,38.41
2023-06-04T08:31:41.462Z,38.29
2023-06-04T08:32:41.613Z,39.57
2023-06-04T08:33:41.507Z,38.67
2023-06-04T08:34:41.424Z,38.45
2023-06-04T08:35:41.349Z,36.19
2023-06-04T08:36:41.385Z,38.99
2023-06-04T08:37:41.322Z,38.91
2023-06-04T08:38:41.541Z,40.00
2023-06-04T08:39:41.325Z,38.81
2023-06-04T08:40:41.308Z,37.60
2023-06-04T08:41:41.294Z,37.08
2023-06-04T08:42:41.300Z,36.17
2023-06-04T08:43:41.244Z,36.27
2023-06-04T08:44:41.289Z,37.15
2023-06-04T08:45:41.376Z,36.65
2023-06-04T08:46:41.276Z,37.43
2023-06-04T08:47:41.225Z,37.43
2023-06-04T08:48:41.234Z,37.51
2023-06-04T08:49:41.178Z,35.32
2023-06-04T08:50:41.204Z,35.13
2023-06-04T08:51:41.175Z,36.00
2023-06-04T08:52:41.154Z,34.80
2023-06-04T08:53:41.173Z,34.31
2023-06-04T08:54:41.155Z,35.04
2023-06-04T08:55:41.087Z,34.34
2023-06-04T08:56:41.163Z,35.34
2023-06-04T08:57:41.086Z,36.11
2023-06-04T08:58:42.039Z,35.90
2023-06-04T08:59:41.061Z,35.69
2023-06-04T09:00:41.050Z,35.47
2023-06-04T09:01:41.065Z,35.86
2023-06-04T09:02:41.257Z,33.97
2023-06-04T09:03:41.009Z,32.17
2023-06-04T09:04:41.018Z,33.26
2023-06-04T09:05:40.954Z,33.28
2023-06-04T09:06:41.927Z,33.61
2023-06-04T09:07:40.961Z,36.60
2023-06-04T09:08:40.990Z,36.38
2023-06-04T09:09:40.958Z,33.37
2023-06-04T09:10:40.940Z,34.34
2023-06-04T09:11:40.883Z,33.85
2023-06-04T09:12:40.924Z,33.26
2023-06-04T09:13:40.840Z,33.94
2023-06-04T09:14:40.984Z,33.72
2023-06-04T09:15:40.886Z,33.33
2023-06-04T09:16:40.860Z,32.14
2023-06-04T09:17:40.833Z,33.03
2023-06-04T09:18:40.812Z,33.41
2023-06-04T09:19:40.797Z,31.65
2023-06-04T09:20:40.806Z,33.21
2023-06-04T09:21:40.766Z,33.11
2023-06-04T09:22:40.781Z,31.13
2023-06-04T09:23:40.754Z,30.54
2023-06-04T09:24:40.806Z,30.46
2023-06-04T09:25:40.693Z,32.17
2023-06-04T09:26:40.738Z,33.40
2023-06-04T09:27:40.688Z,32.71
2023-06-04T09:28:40.674Z,32.51
2023-06-04T09:29:40.665Z,33.19
2023-06-04T09:30:40.845Z,34.46
2023-06-04T09:31:40.648Z,34.13
2023-06-04T09:32:40.666Z,33.78
2023-06-04T09:33:40.606Z,34.45
2023-06-04T09:34:40.627Z,35.46
2023-06-04T09:35:40.554Z,35.55
2023-06-04T09:36:40.602Z,35.32
2023-06-04T09:37:40.531Z,34.20
2023-06-04T09:38:40.574Z,34.64
2023-06-04T09:39:40.530Z,31.74
2023-06-04T09:40:40.541Z,31.15
2023-06-04T09:41:40.536Z,31.73
2023-06-04T09:42:40.522Z,31.04
2023-06-04T09:43:40.461Z,31.66
2023-06-04T09:44:40.593Z,34.13
2023-06-04T09:45:40.445Z,32.34
2023-06-04T09:46:40.475Z,33.51
2023-06-04T09:47:40.491Z,33.79
2023-06-04T09:48:40.435Z,33.65
2023-06-04T09:49:40.376Z,30.10
2023-06-04T09:50:40.778Z,30.40
2023-06-04T09:51:40.374Z,31.22
2023-06-04T09:52:40.382Z,31.71
2023-06-04T09:53:40.345Z,31.22
2023-06-04T09:54:40.355Z,31.91
2023-06-04T09:55:40.300Z,30.51
2023-06-04T09:56:40.366Z,32.35
2023-06-04T09:57:44.160Z,35.29
2023-06-04T09:58:41.728Z,35.80
2023-06-04T09:59:40.294Z,35.32
2023-06-04T10:00:41.215Z,34.22
2023-06-04T10:01:40.289Z,32.60
2023-06-04T10:02:40.388Z,35.39
2023-06-04T10:03:40.346Z,34.48
2023-06-04T10:04:40.223Z,32.18
2023-06-04T10:05:40.160Z,31.74
2023-06-04T10:06:40.169Z,31.02
2023-06-04T10:07:40.181Z,31.91
2023-06-04T10:08:40.174Z,32.59
2023-06-04T10:09:40.154Z,32.95
2023-06-04T10:10:40.163Z,31.85
2023-06-04T10:11:40.080Z,30.15
2023-06-04T10:12:40.114Z,31.41
2023-06-04T10:13:40.065Z,29.80
2023-06-04T10:14:40.090Z,27.92
2023-06-04T10:15:40.068Z,28.99
2023-06-04T10:16:40.078Z,28.41
2023-06-04T10:17:40.093Z,28.70
2023-06-04T10:18:40.046Z,27.66
2023-06-04T10:19:39.982Z,28.47
2023-06-04T10:20:40.028Z,28.97
2023-06-04T10:21:39.982Z,30.45
2023-06-04T10:22:39.988Z,31.48
2023-06-04T10:23:39.960Z,31.59
2023-06-04T10:24:39.984Z,31.76
2023-06-04T10:25:39.896Z,30.76
2023-06-04T10:26:40.021Z,30.16
2023-06-04T10:27:39.898Z,29.16
2023-06-04T10:28:39.891Z,29.53
2023-06-04T10:29:39.877Z,30.11
2023-06-04T10:30:39.900Z,29.39
2023-06-04T10:31:40.590Z,27.43
2023-06-04T10:32:39.938Z,27.22
2023-06-04T10:33:39.805Z,29.00
2023-06-04T10:34:39.817Z,27.82
2023-06-04T10:35:39.804Z,30.34
2023-06-04T10:36:39.811Z,30.63
2023-06-04T10:37:39.748Z,31.51
2023-06-04T10:38:39.786Z,29.72
2023-06-04T10:39:39.750Z,30.04
2023-06-04T10:40:39.741Z,29.82
2023-06-04T10:41:39.728Z,31.90
2023-06-04T10:42:39.827Z,31.67
2023-06-04T10:43:39.666Z,30.17
2023-06-04T10:44:39.744Z,28.68
2023-06-04T10:45:39.655Z,28.78
2023-06-04T10:46:39.775Z,29.57
2023-06-04T10:47:39.695Z,29.44
2023-06-04T10:48:39.630Z,27.66
2023-06-04T10:49:39.611Z,28.37
2023-06-04T10:50:39.670Z,31.17
2023-06-04T10:51:39.579Z,31.16
2023-06-04T10:52:39.612Z,30.34
2023-06-04T10:53:39.562Z,30.11
2023-06-04T10:54:39.570Z,28.03
2023-06-04T10:55:39.504Z,27.64
2023-06-04T10:56:39.659Z,29.31
2023-06-04T10:57:39.481Z,30.00
2023-06-04T10:58:39.497Z,29.31
2023-06-04T10:59:39.498Z,28.63
2023-06-04T11:00:39.491Z,28.05
2023-06-04T11:01:39.473Z,27.75
2023-06-04T11:02:39.568Z,28.26
2023-06-04T11:03:39.481Z,28.64
2023-06-04T11:04:39.424Z,30.43
2023-06-04T11:05:39.389Z,29.82
2023-06-04T11:06:39.373Z,32.77
2023-06-04T11:07:39.364Z,29.99
2023-06-04T11:08:39.575Z,29.11
2023-06-04T11:09:39.363Z,29.10
2023-06-04T11:10:39.375Z,30.76
2023-06-04T11:11:39.285Z,29.37
2023-06-04T11:12:39.368Z,30.45
2023-06-04T11:13:39.266Z,29.76
2023-06-04T11:14:39.556Z,31.60
2023-06-04T11:15:41.047Z,28.63
2023-06-04T11:16:39.436Z,27.23
2023-06-04T11:17:39.285Z,27.54
2023-06-04T11:18:39.234Z,27.74
2023-06-04T11:19:39.170Z,27.82
2023-06-04T11:20:39.335Z,28.12
2023-06-04T11:21:39.206Z,28.74
2023-06-04T11:22:39.185Z,30.50
2023-06-04T11:23:39.186Z,32.03
2023-06-04T11:24:39.173Z,31.11
2023-06-04T11:25:39.096Z,31.52
2023-06-04T11:26:41.900Z,34.12
2023-06-04T11:27:40.089Z,33.90
2023-06-04T11:28:39.076Z,33.57
2023-06-04T11:29:39.066Z,33.04
2023-06-04T11:30:39.072Z,32.22
2023-06-04T11:31:39.031Z,32.21
2023-06-04T11:32:39.125Z,30.61
2023-06-04T11:33:38.984Z,32.70
2023-06-04T11:34:38.997Z,32.56
2023-06-04T11:35:38.983Z,30.58
2023-06-04T11:36:38.975Z,30.48
2023-06-04T11:37:38.954Z,31.06
2023-06-04T11:38:39.008Z,32.54
2023-06-04T11:39:38.908Z,30.55
2023-06-04T11:40:38.953Z,29.75
2023-06-04T11:41:38.903Z,28.55
2023-06-04T11:42:38.993Z,29.37
2023-06-04T11:43:38.878Z,30.34
2023-06-04T11:44:39.023Z,29.48
2023-06-04T11:45:38.829Z,32.52
2023-06-04T11:46:38.868Z,32.39
2023-06-04T11:47:38.902Z,33.28
2023-06-04T11:48:38.855Z,32.15
2023-06-04T11:49:38.805Z,31.53
2023-06-04T11:50:38.843Z,34.66
2023-06-04T11:51:38.756Z,30.78
2023-06-04T11:52:38.788Z,29.55
2023-06-04T11:53:38.728Z,29.52
2023-06-04T11:54:38.737Z,29.97
2023-06-04T11:55:40.013Z,27.71
2023-06-04T11:56:38.772Z,28.40
2023-06-04T11:57:38.673Z,30.30
2023-06-04T11:58:38.683Z,29.13
2023-06-04T11:59:38.673Z,29.14
2023-06-04T12:00:38.658Z,30.41
2023-06-04T12:01:40.317Z,28.64
2023-06-04T12:02:38.749Z,29.72
2023-06-04T12:03:38.680Z,28.92
2023-06-04T12:04:38.634Z,27.64
2023-06-04T12:05:38.613Z,28.99
2023-06-04T12:06:38.608Z,28.30
2023-06-04T12:07:38.567Z,29.11
2023-06-04T12:08:38.675Z,28.91
2023-06-04T12:09:38.548Z,28.69
2023-06-04T12:10:38.579Z,28.77
2023-06-04T12:11:38.495Z,26.50
2023-06-04T12:12:38.479Z,27.46
2023-06-04T12:13:38.532Z,26.37
2023-06-04T12:14:38.574Z,28.47
2023-06-04T12:15:38.488Z,28.02
2023-06-04T12:16:38.555Z,27.72
2023-06-04T12:17:38.534Z,27.51
2023-06-04T12:18:38.408Z,28.68
2023-06-04T12:19:38.445Z,29.63
2023-06-04T12:20:38.404Z,29.11
2023-06-04T12:21:38.415Z,27.99
2023-06-04T12:22:38.377Z,29.10
2023-06-04T12:27:41.214Z,28.99
2023-06-04T12:27:45.904Z,30.63
2023-06-04T12:28:45.887Z,30.41
2023-06-04T12:29:45.850Z,29.30
2023-06-04T12:30:45.950Z,29.07
2023-06-04T12:31:45.897Z,29.25
2023-06-04T12:32:45.902Z,27.09
2023-06-04T12:33:45.796Z,27.78
2023-06-04T12:34:45.843Z,28.97
2023-06-04T12:35:45.776Z,28.06
2023-06-04T12:36:45.808Z,26.78
2023-06-04T12:37:45.775Z,27.46
2023-06-04T12:38:47.810Z,26.48
2023-06-04T12:39:45.752Z,26.75
2023-06-04T12:40:45.745Z,25.95
2023-06-04T12:41:45.700Z,25.17
2023-06-04T12:42:45.747Z,28.37
2023-06-04T12:43:45.676Z,30.24
2023-06-04T12:44:45.738Z,32.83
2023-06-04T12:45:45.685Z,31.90
2023-06-04T12:46:45.706Z,30.37
2023-06-04T12:47:45.657Z,29.39
2023-06-04T12:48:45.659Z,30.91
2023-06-04T12:49:45.629Z,30.17
2023-06-04T12:50:45.639Z,29.53
2023-06-04T12:51:45.602Z,27.22
2023-06-04T12:52:45.585Z,27.02
2023-06-04T12:53:45.549Z,27.42
2023-06-04T12:54:45.587Z,28.41
2023-06-04T12:55:45.523Z,28.09